158 км

Карта отелей и гостиниц, располагающихся рядом с аэропортом 158 км :

158 км Красноярский край 69° 30' 26.3988" N, 85° 59' 35.7612" E
158 км Красноярский край 69° 30' 26.3988" N, 85° 59' 35.7612" E
Код аэродрома ИКАО: 
ZDG3
Код аэродрома RU: 
ЗДГ3
Координаты: 
N69.50733° E085.99327°
Превышение над уровнем моря : 
26
Основная полоса: 
06/24
Курс магнитный: 
059,6/239,6
Длина основной ВПП: 
30
Ширина основной ВПП: 
30
Покрытие основной ВПП: 
Нетвёрдое (грунт)
Освещение ВПП: 
Нет
Тип: 
Вертодром
Класс аэродрома: 
Принадлежность: 
ГА
Статус: 
Действующий
Сайт: 
E-mail аэродрома: 
Страна: 
Россия
Регион: 
Красноярский край
Город: 
Дополнительная информация: 

Найти трансфер

С помощью этой формы Вы можете найти трансфер из аэропорта 158 км в город, аэропорт или вокзал:

Карта места

Javascript is required to view this map.

Погода в аэропортах:

Авиационная погода в Мурманске

Регион: 
Погода METAR: 
ULMM 270730Z 14002MPS 1300 1200SW R31/1300D BR SCT003 02/02 Q1031 R31/290060 BECMG 5000 BR SCT016 RMK QBB100 OBST OBSC QFE765
Время наблюдения: 
2020-09-27T07:30:00Z
Температура C: 
2.0
Точка росы: 
2.0
Направление ветра: 
140
Скорость ветра (узлы): 
4
Метеорологическая видимость: 
0.81
Явления погоды: 
BR
Условия полета: 
LIFR
Аэропорт подробнее: 

Авиационная погода в Минеральные Воды

Регион: 
Погода METAR: 
URMM 270730Z 11007MPS 9999 -DZ OVC009 18/15 Q1018 R12/090070 NOSIG RMK MT OBSC QFE735/0980
Время наблюдения: 
2020-09-27T07:30:00Z
Температура C: 
18.0
Точка росы: 
15.0
Направление ветра: 
110
Скорость ветра (узлы): 
14
Метеорологическая видимость: 
6.21
Явления погоды: 
-DZ
Условия полета: 
IFR
Аэропорт подробнее: 

Авиационная погода в Бресте

Регион: 
Погода METAR: 
UMBB 270710Z 12007G10MPS 5000 BR OVC012CB 17/15 Q0998 NOSIG
Время наблюдения: 
2020-09-27T07:10:00Z
Температура C: 
17.0
Точка росы: 
15.0
Направление ветра: 
120
Скорость ветра (узлы): 
14
Метеорологическая видимость: 
3.11
Явления погоды: 
BR
Условия полета: 
MVFR
Аэропорт подробнее: 

Авиационная погода в Элисте

Регион: 
Погода METAR: 
URWI 270730Z 12010MPS 9000 -DS NSC 19/06 Q1022 R09/010065 TEMPO 12013G20MPS 3000 -DS
Время наблюдения: 
2020-09-27T07:30:00Z
Температура C: 
19.0
Точка росы: 
6.0
Направление ветра: 
120
Скорость ветра (узлы): 
19
Метеорологическая видимость: 
5.59
Явления погоды: 
-DS
Условия полета: 
VFR
Аэропорт подробнее: